»·PEaware :: WAT169 KPHX-KLAS

WAT169 :: KPHX-KLAS

FLIGHT INFORMATION

Flight Status: Arrived
Operator: Unknown
More flights by this operator :: More flights under this callsign
Pilot: Marty P. (27464)
Aircraft: BOEING 737-800
(B738)
More flights by this aircraft type
Origin: KPHX Phoenix Sky Harbor Intl
United States
Destination: KLAS McCarran Intl
United States
More flights between these airports :: More routes between these airports
Route: +ZEPER2 RRSTA IGM TYSSN5
File this flight plan on PilotEdge
Remarks:
Altitude:
(Current/Filed)
28,000ft
Speed:
(Current/Filed)
480kts
Departed: 31-Jul-20 08:04 PM
Arrived: 31-Jul-20 08:46 PM
Distance/Time
Traveled:
222nm/0:41
Distance/Time
To Go:
Arrived

Flight Plot

Page will automatically refresh every two minutes.


Map Options




Map Legend


Flown Route
Filed Route
Departure Airport
Arrival Airport
Navaid (VOR, NDB)
Fix

Horizontal Profiles

Position Reports

Time Latitude Longitude Heading Altitude Ground
Speed
31-Jul-20 19:39 33.434756 -112.014281 112 1144ft 0kts
31-Jul-20 19:40 33.434757 -112.014281 112 1144ft 0kts
31-Jul-20 19:40 33.434757 -112.014281 112 1144ft 0kts
31-Jul-20 19:42 33.434757 -112.014281 112 1144ft 0kts
31-Jul-20 19:43 33.434757 -112.014281 112 1144ft 0kts
31-Jul-20 19:43 33.434757 -112.014281 112 1144ft 0kts
31-Jul-20 19:44 33.434757 -112.014281 112 1144ft 0kts
31-Jul-20 19:45 33.434757 -112.014281 112 1144ft 0kts
31-Jul-20 19:46 33.434757 -112.014281 112 1144ft 0kts
31-Jul-20 19:47 33.434757 -112.014281 112 1144ft 0kts
31-Jul-20 19:48 33.434757 -112.014281 112 1144ft 0kts
31-Jul-20 19:49 33.434757 -112.014281 112 1144ft 0kts
31-Jul-20 19:50 33.434757 -112.014281 112 1144ft 0kts
31-Jul-20 19:51 33.434757 -112.014281 112 1144ft 0kts
31-Jul-20 19:52 33.434861 -112.014576 111 1144ft 2kts
31-Jul-20 19:53 33.435105 -112.014949 192 1144ft 1kts
31-Jul-20 19:54 33.433841 -112.015463 198 1144ft 3kts
31-Jul-20 19:55 33.433477 -112.015580 192 1144ft 0kts
31-Jul-20 19:56 33.433477 -112.015580 192 1144ft 0kts
31-Jul-20 19:57 33.432485 -112.015039 140 1144ft 0kts
31-Jul-20 19:58 33.432158 -112.011819 89 1144ft 17kts
31-Jul-20 19:59 33.432154 -112.006576 89 1144ft 13kts
31-Jul-20 20:00 33.432149 -112.000712 89 1144ft 20kts
31-Jul-20 20:01 33.432150 -111.994264 89 1144ft 17kts
31-Jul-20 20:02 33.431987 -111.993523 160 1144ft 0kts
31-Jul-20 20:03 33.431019 -112.000778 269 1144ft 103kts
31-Jul-20 20:04 33.430767 -112.058092 274 2601ft 209kts
31-Jul-20 20:05 33.434873 -112.140121 281 5074ft 256kts
31-Jul-20 20:06 33.482580 -112.196267 350 8305ft 266kts
31-Jul-20 20:07 33.559834 -112.198572 354 10534ft 303kts
31-Jul-20 20:08 33.652671 -112.213020 344 11645ft 371kts
31-Jul-20 20:09 33.755482 -112.246255 343 15078ft 380kts
31-Jul-20 20:10 33.859482 -112.279881 344 17827ft 397kts
31-Jul-20 20:11 33.967457 -112.314921 343 20366ft 408kts
31-Jul-20 20:12 34.068169 -112.376679 323 23408ft 397kts
31-Jul-20 20:13 34.152118 -112.459505 321 26064ft 391kts
31-Jul-20 20:14 34.234499 -112.542420 321 28137ft 396kts
31-Jul-20 20:15 34.324451 -112.633105 321 28181ft 447kts
31-Jul-20 20:16 34.423392 -112.733238 320 28175ft 478kts
31-Jul-20 20:17 34.523756 -112.835167 320 28175ft 472kts
31-Jul-20 20:18 34.624568 -112.938269 320 28174ft 475kts
31-Jul-20 20:19 34.723503 -113.043808 314 28174ft 475kts
31-Jul-20 20:20 34.809177 -113.166814 307 28113ft 478kts
31-Jul-20 20:21 34.887253 -113.297254 306 28040ft 479kts
31-Jul-20 20:22 34.965227 -113.428777 306 28036ft 478kts
31-Jul-20 20:23 35.038175 -113.552485 306 28038ft 444kts
31-Jul-20 20:24 35.109793 -113.674351 305 27242ft 444kts
31-Jul-20 20:25 35.178865 -113.792434 305 25514ft 432kts
31-Jul-20 20:26 35.251198 -113.908634 313 22811ft 421kts
31-Jul-20 20:27 35.337422 -114.001906 320 20246ft 413kts
31-Jul-20 20:28 35.425652 -114.086876 321 18552ft 386kts
31-Jul-20 20:29 35.514003 -114.169893 321 16875ft 406kts
31-Jul-20 20:30 35.601607 -114.251619 321 14774ft 385kts
31-Jul-20 20:31 35.686008 -114.330526 321 13023ft 376kts
31-Jul-20 20:32 35.769924 -114.395813 336 12007ft 319kts
31-Jul-20 20:33 35.850193 -114.436142 320 11996ft 309kts
31-Jul-20 20:34 35.886717 -114.528095 288 11990ft 288kts
31-Jul-20 20:35 35.914065 -114.618348 289 12001ft 283kts
31-Jul-20 20:36 35.941072 -114.705052 289 11965ft 252kts
31-Jul-20 20:37 35.965525 -114.781903 300 12024ft 221kts
31-Jul-20 20:38 36.015964 -114.828490 321 9706ft 228kts
31-Jul-20 20:39 36.065738 -114.871210 308 7478ft 205kts
31-Jul-20 20:40 36.074204 -114.932986 261 5339ft 190kts
31-Jul-20 20:41 36.073560 -114.987676 267 4434ft 147kts
31-Jul-20 20:42 36.073619 -115.038655 267 3612ft 148kts
31-Jul-20 20:43 36.073648 -115.089566 269 2803ft 147kts
31-Jul-20 20:44 36.073618 -115.138586 269 2191ft 88kts
31-Jul-20 20:45 36.075651 -115.146530 356 2191ft 15kts
31-Jul-20 20:46 36.078795 -115.147261 346 2191ft 10kts
31-Jul-20 20:47 36.079908 -115.147061 61 2191ft 0kts

Navigation Log

Ident Type
Flight plan parsing failed, navigation log unavailable